createdAt,value
2017-08-26T00:00:49.518Z,0
2017-08-26T00:01:51.948Z,0
2017-08-26T00:02:54.374Z,0
2017-08-26T00:03:57.145Z,0
2017-08-26T00:04:59.568Z,0
2017-08-26T00:06:02.003Z,0
2017-08-26T00:07:04.422Z,0
2017-08-26T00:08:06.848Z,0
2017-08-26T00:09:09.524Z,0
2017-08-26T00:10:11.950Z,0
2017-08-26T00:11:14.370Z,0
2017-08-26T00:12:16.797Z,0
2017-08-26T00:13:19.221Z,0
2017-08-26T00:14:21.990Z,0
2017-08-26T00:15:24.414Z,0
2017-08-26T00:16:27.181Z,0
2017-08-26T00:17:29.612Z,0
2017-08-26T00:18:32.042Z,0
2017-08-26T00:19:34.602Z,0
2017-08-26T00:20:37.366Z,0
2017-08-26T00:21:39.787Z,0
2017-08-26T00:22:42.217Z,0
2017-08-26T00:23:44.975Z,0
2017-08-26T00:24:47.501Z,0
2017-08-26T00:25:49.922Z,0
2017-08-26T00:26:52.686Z,0
2017-08-26T00:27:55.448Z,0
2017-08-26T00:28:57.874Z,0
2017-08-26T00:30:00.294Z,0
2017-08-26T00:31:03.056Z,0
2017-08-26T00:32:05.491Z,0
2017-08-26T00:33:07.910Z,0
2017-08-26T00:34:11.085Z,0
2017-08-26T00:35:13.498Z,0
2017-08-26T00:36:15.924Z,0
2017-08-26T00:37:18.346Z,0
2017-08-26T00:38:20.774Z,0
2017-08-26T00:39:23.362Z,0
2017-08-26T00:40:25.787Z,0
2017-08-26T00:41:28.211Z,0
2017-08-26T00:42:30.638Z,0
2017-08-26T00:43:33.069Z,0
2017-08-26T00:44:35.634Z,0
2017-08-26T00:45:38.061Z,0
2017-08-26T00:46:40.479Z,0
2017-08-26T00:47:42.908Z,0
2017-08-26T00:48:45.343Z,0
2017-08-26T00:49:48.022Z,0
2017-08-26T00:50:50.442Z,0
2017-08-26T00:51:52.863Z,0
2017-08-26T00:52:55.628Z,0
2017-08-26T00:53:58.067Z,0
2017-08-26T00:55:00.489Z,0
2017-08-26T00:56:02.918Z,0
2017-08-26T00:57:05.347Z,0
2017-08-26T00:58:07.775Z,0
2017-08-26T00:59:10.204Z,0
2017-08-26T01:00:12.622Z,0
2017-08-26T01:01:15.049Z,0
2017-08-26T01:02:17.478Z,0
2017-08-26T01:03:19.894Z,0
2017-08-26T01:04:22.762Z,0
2017-08-26T01:05:25.190Z,0
2017-08-26T01:06:27.618Z,0
2017-08-26T01:07:30.045Z,0
2017-08-26T01:08:32.473Z,0
2017-08-26T01:09:35.023Z,0
2017-08-26T01:10:37.452Z,0
2017-08-26T01:11:39.882Z,0
2017-08-26T01:12:42.298Z,0
2017-08-26T01:13:44.721Z,0
2017-08-26T01:14:47.342Z,0
2017-08-26T01:15:49.770Z,0
2017-08-26T01:16:52.199Z,0
2017-08-26T01:17:54.619Z,0
2017-08-26T01:18:57.046Z,0
2017-08-26T01:19:59.549Z,0
2017-08-26T01:21:02.668Z,0
2017-08-26T01:22:05.097Z,0
2017-08-26T01:23:08.199Z,0
2017-08-26T01:24:10.626Z,0
2017-08-26T01:25:13.053Z,0
2017-08-26T01:26:15.485Z,0
2017-08-26T01:27:18.242Z,0
2017-08-26T01:28:20.665Z,0
2017-08-26T01:29:23.208Z,0
2017-08-26T01:30:25.627Z,0
2017-08-26T01:31:28.391Z,0
2017-08-26T01:32:30.818Z,0
2017-08-26T01:33:33.239Z,0
2017-08-26T01:34:36.119Z,0
2017-08-26T01:35:38.546Z,0
2017-08-26T01:36:40.959Z,0
2017-08-26T01:37:43.390Z,0
2017-08-26T01:38:45.813Z,0
2017-08-26T01:39:48.969Z,0
2017-08-26T01:40:51.393Z,0
2017-08-26T01:41:53.821Z,0
2017-08-26T01:42:56.245Z,0
2017-08-26T01:43:58.671Z,0
2017-08-26T01:45:01.091Z,0
2017-08-26T01:46:03.868Z,0
2017-08-26T01:47:06.285Z,0
2017-08-26T01:48:08.718Z,0
2017-08-26T01:49:11.171Z,0
2017-08-26T01:50:13.786Z,0
2017-08-26T01:51:16.213Z,0
2017-08-26T01:52:18.640Z,0
2017-08-26T01:53:21.059Z,0
2017-08-26T01:54:23.491Z,0
2017-08-26T01:55:25.919Z,0
2017-08-26T01:56:28.345Z,0
2017-08-26T01:57:30.781Z,0
2017-08-26T01:58:33.209Z,0
2017-08-26T01:59:35.630Z,0
2017-08-26T02:00:38.063Z,0
2017-08-26T02:01:40.827Z,0
2017-08-26T02:02:43.358Z,0
2017-08-26T02:03:46.123Z,0
2017-08-26T02:04:48.556Z,0
2017-08-26T02:05:51.323Z,0
2017-08-26T02:06:53.754Z,0
2017-08-26T02:07:56.187Z,0
2017-08-26T02:08:58.616Z,0
2017-08-26T02:10:01.050Z,0
2017-08-26T02:11:03.475Z,0
2017-08-26T02:12:05.895Z,0
2017-08-26T02:13:08.322Z,0
2017-08-26T02:14:10.750Z,0
2017-08-26T02:15:13.195Z,0
2017-08-26T02:16:15.623Z,0
2017-08-26T02:17:18.047Z,0
2017-08-26T02:18:20.471Z,0
2017-08-26T02:19:22.896Z,0
2017-08-26T02:20:25.668Z,0
2017-08-26T02:21:28.093Z,0
2017-08-26T02:22:30.523Z,0
2017-08-26T02:23:33.046Z,0
2017-08-26T02:24:35.497Z,0
2017-08-26T02:25:37.918Z,0
2017-08-26T02:26:40.350Z,0
2017-08-26T02:27:42.768Z,0
2017-08-26T02:28:45.196Z,0
2017-08-26T02:29:47.624Z,0
2017-08-26T02:30:50.048Z,0
2017-08-26T02:31:52.810Z,0
2017-08-26T02:32:55.246Z,0
2017-08-26T02:33:57.683Z,0
2017-08-26T02:35:00.113Z,0
2017-08-26T02:36:02.874Z,0
2017-08-26T02:37:05.305Z,0
2017-08-26T02:38:07.726Z,0
2017-08-26T02:39:10.160Z,0
2017-08-26T02:40:12.593Z,0
2017-08-26T02:41:15.010Z,0
2017-08-26T02:42:17.462Z,0
2017-08-26T02:43:19.876Z,0
2017-08-26T02:44:22.636Z,0
2017-08-26T02:45:25.080Z,0
2017-08-26T02:46:27.504Z,0
2017-08-26T02:47:29.926Z,0
2017-08-26T02:48:32.357Z,0
2017-08-26T02:49:34.783Z,0
2017-08-26T02:50:37.211Z,0
2017-08-26T02:51:39.639Z,0
2017-08-26T02:52:42.060Z,0
2017-08-26T02:53:44.833Z,0
2017-08-26T02:54:47.258Z,0
2017-08-26T02:55:49.687Z,0
2017-08-26T02:56:52.112Z,0
2017-08-26T02:57:54.542Z,0
2017-08-26T02:58:56.978Z,0
2017-08-26T02:59:59.409Z,0
2017-08-26T03:01:01.836Z,0
2017-08-26T03:02:04.254Z,0
2017-08-26T03:03:06.682Z,0
2017-08-26T03:04:09.116Z,0
2017-08-26T03:05:11.570Z,0
2017-08-26T03:06:14.017Z,0
2017-08-26T03:07:16.414Z,0
2017-08-26T03:08:18.851Z,0
2017-08-26T03:09:21.273Z,0
2017-08-26T03:10:23.703Z,0
2017-08-26T03:11:26.490Z,0
2017-08-26T03:12:28.915Z,0
2017-08-26T03:13:31.680Z,0
2017-08-26T03:14:34.106Z,0
2017-08-26T03:15:36.529Z,0
2017-08-26T03:16:38.962Z,0
2017-08-26T03:17:41.398Z,0
2017-08-26T03:18:43.813Z,0
2017-08-26T03:19:46.245Z,0
2017-08-26T03:20:48.677Z,0
2017-08-26T03:21:51.107Z,0
2017-08-26T03:22:53.542Z,0
2017-08-26T03:23:56.994Z,0
2017-08-26T03:24:59.423Z,0
2017-08-26T03:26:01.874Z,0
2017-08-26T03:27:04.292Z,0
2017-08-26T03:28:06.721Z,0
2017-08-26T03:29:09.497Z,0
2017-08-26T03:30:11.924Z,0
2017-08-26T03:31:14.357Z,0
2017-08-26T03:32:16.785Z,0
2017-08-26T03:33:19.206Z,0
2017-08-26T03:34:21.629Z,0
2017-08-26T03:35:24.060Z,4
2017-08-26T03:36:26.493Z,4
2017-08-26T03:37:28.915Z,0
2017-08-26T03:38:31.346Z,0
2017-08-26T03:39:33.771Z,0
2017-08-26T03:40:36.192Z,4
2017-08-26T03:41:38.644Z,4
2017-08-26T03:42:41.078Z,4
2017-08-26T03:43:43.502Z,4
2017-08-26T03:44:45.927Z,4
2017-08-26T03:45:48.349Z,8
2017-08-26T03:46:51.142Z,8
2017-08-26T03:47:53.905Z,8
2017-08-26T03:48:56.328Z,12
2017-08-26T03:49:58.745Z,12
2017-08-26T03:51:01.172Z,12
2017-08-26T03:52:03.598Z,16
2017-08-26T03:53:06.026Z,20
2017-08-26T03:54:08.449Z,20
2017-08-26T03:55:10.874Z,28
2017-08-26T03:56:13.297Z,32
2017-08-26T03:57:16.074Z,36
2017-08-26T03:58:18.494Z,44
2017-08-26T03:59:20.926Z,52
2017-08-26T04:00:24.031Z,60
2017-08-26T04:01:26.457Z,68
2017-08-26T04:02:28.882Z,72
2017-08-26T04:03:31.649Z,76
2017-08-26T04:04:34.069Z,80
2017-08-26T04:05:36.497Z,92
2017-08-26T04:06:38.918Z,100
2017-08-26T04:07:41.338Z,112
2017-08-26T04:08:43.766Z,116
2017-08-26T04:09:46.187Z,124
2017-08-26T04:10:48.613Z,132
2017-08-26T04:11:51.035Z,144
2017-08-26T04:12:53.459Z,148
2017-08-26T04:13:56.225Z,160
2017-08-26T04:14:58.653Z,172
2017-08-26T04:16:01.425Z,188
2017-08-26T04:17:03.853Z,204
2017-08-26T04:18:06.277Z,228
2017-08-26T04:19:08.706Z,256
2017-08-26T04:20:11.126Z,280
2017-08-26T04:21:13.557Z,312
2017-08-26T04:22:15.982Z,340
2017-08-26T04:23:18.408Z,364
2017-08-26T04:24:20.828Z,400
2017-08-26T04:25:23.249Z,432
2017-08-26T04:26:25.669Z,468
2017-08-26T04:27:28.108Z,508
2017-08-26T04:28:30.574Z,548
2017-08-26T04:29:33.052Z,592
2017-08-26T04:30:35.525Z,636
2017-08-26T04:31:37.987Z,684
2017-08-26T04:32:40.805Z,736
2017-08-26T04:33:43.264Z,784
2017-08-26T04:34:45.723Z,836
2017-08-26T04:35:48.198Z,892
2017-08-26T04:36:51.013Z,952
2017-08-26T04:37:53.470Z,1004
2017-08-26T04:38:55.928Z,1064
2017-08-26T04:39:58.402Z,1124
2017-08-26T04:41:00.851Z,1180
2017-08-26T04:42:03.312Z,1236
2017-08-26T04:43:05.772Z,1288
2017-08-26T04:44:08.249Z,1344
2017-08-26T04:45:11.059Z,1396
2017-08-26T04:46:13.552Z,1452
2017-08-26T04:47:16.006Z,1504
2017-08-26T04:48:18.475Z,1552
2017-08-26T04:49:20.951Z,1608
2017-08-26T04:50:23.416Z,1668
2017-08-26T04:51:25.874Z,1720
2017-08-26T04:52:28.335Z,1780
2017-08-26T04:53:30.824Z,1836
2017-08-26T04:54:33.289Z,1896
2017-08-26T04:55:35.768Z,1964
2017-08-26T04:56:38.228Z,2032
2017-08-26T04:57:40.715Z,2100
2017-08-26T04:58:43.174Z,2172
2017-08-26T04:59:45.640Z,2244
2017-08-26T05:00:48.098Z,2320
2017-08-26T05:01:50.561Z,2400
2017-08-26T05:02:53.029Z,2480
2017-08-26T05:03:55.641Z,2556
2017-08-26T05:04:58.437Z,2636
2017-08-26T05:06:00.900Z,2712
2017-08-26T05:07:03.705Z,2788
2017-08-26T05:08:06.168Z,2856
2017-08-26T05:09:08.622Z,2924
2017-08-26T05:10:11.089Z,2992
2017-08-26T05:11:13.637Z,3064
2017-08-26T05:12:16.839Z,3140
2017-08-26T05:13:19.632Z,3224
2017-08-26T05:14:22.102Z,3300
2017-08-26T05:15:24.562Z,3380
2017-08-26T05:16:27.021Z,3456
2017-08-26T05:17:29.483Z,3528
2017-08-26T05:18:31.946Z,3604
2017-08-26T05:19:34.411Z,3676
2017-08-26T05:20:36.879Z,3736
2017-08-26T05:21:39.561Z,3796
2017-08-26T05:22:42.031Z,3872
2017-08-26T05:23:44.488Z,3964
2017-08-26T05:24:46.956Z,4060
2017-08-26T05:25:49.410Z,4172
2017-08-26T05:26:52.231Z,4268
2017-08-26T05:27:54.686Z,4332
2017-08-26T05:28:57.505Z,4384
2017-08-26T05:29:59.960Z,4396
2017-08-26T05:31:02.422Z,4424
2017-08-26T05:32:04.888Z,4480
2017-08-26T05:33:07.506Z,4544
2017-08-26T05:34:10.321Z,4608
2017-08-26T05:35:12.787Z,4648
2017-08-26T05:36:15.243Z,4724
2017-08-26T05:37:18.046Z,4788
2017-08-26T05:38:20.503Z,4832
2017-08-26T05:39:23.019Z,4876
2017-08-26T05:40:25.494Z,4940
2017-08-26T05:41:28.322Z,5016
2017-08-26T05:42:30.785Z,5108
2017-08-26T05:43:33.242Z,5240
2017-08-26T05:44:36.170Z,5396
2017-08-26T05:45:38.650Z,5556
2017-08-26T05:46:41.105Z,5724
2017-08-26T05:47:43.910Z,5896
2017-08-26T05:48:46.546Z,6080
2017-08-26T05:49:49.006Z,6284
2017-08-26T05:50:51.827Z,6528
2017-08-26T05:51:54.290Z,6764
2017-08-26T05:52:56.750Z,6968
2017-08-26T05:53:59.222Z,7148
2017-08-26T05:55:01.684Z,7268
2017-08-26T05:56:04.138Z,7300
2017-08-26T05:57:06.600Z,7284
2017-08-26T05:58:09.062Z,7232
2017-08-26T05:59:11.870Z,7200
2017-08-26T06:00:14.341Z,7096
2017-08-26T06:01:17.143Z,7040
2017-08-26T06:02:19.604Z,7048
2017-08-26T06:03:22.080Z,7060
2017-08-26T06:04:24.536Z,7036
2017-08-26T06:05:27.356Z,7000
2017-08-26T06:06:29.825Z,7016
2017-08-26T06:07:32.735Z,7096
2017-08-26T06:08:35.194Z,7128
2017-08-26T06:09:37.658Z,7188
2017-08-26T06:10:40.436Z,7316
2017-08-26T06:11:43.252Z,7468
2017-08-26T06:12:45.702Z,7768
2017-08-26T06:13:48.173Z,7896
2017-08-26T06:14:50.636Z,8076
2017-08-26T06:15:53.097Z,8320
2017-08-26T06:16:55.571Z,8520
2017-08-26T06:17:58.033Z,8744
2017-08-26T06:19:00.834Z,8956
2017-08-26T06:20:03.444Z,9156
2017-08-26T06:21:05.900Z,9228
2017-08-26T06:22:08.368Z,9360
2017-08-26T06:23:10.830Z,9256
2017-08-26T06:24:13.290Z,9148
2017-08-26T06:25:15.760Z,9124
2017-08-26T06:26:18.295Z,9136
2017-08-26T06:27:20.769Z,9152
2017-08-26T06:28:23.237Z,9364
2017-08-26T06:29:25.878Z,9536
2017-08-26T06:30:28.338Z,9700
2017-08-26T06:31:30.810Z,9940
2017-08-26T06:32:33.279Z,10144
2017-08-26T06:33:35.738Z,10540
2017-08-26T06:34:38.212Z,10804
2017-08-26T06:35:40.681Z,10976
2017-08-26T06:36:43.147Z,11072
2017-08-26T06:37:45.952Z,11088
2017-08-26T06:38:48.429Z,11092
2017-08-26T06:39:50.894Z,11204
2017-08-26T06:40:53.564Z,11344
2017-08-26T06:41:56.043Z,11412
2017-08-26T06:42:58.510Z,11504
2017-08-26T06:44:00.981Z,11532
2017-08-26T06:45:03.444Z,11544
2017-08-26T06:46:05.914Z,11616
2017-08-26T06:47:08.439Z,11568
2017-08-26T06:48:10.943Z,11460
2017-08-26T06:49:13.405Z,11468
2017-08-26T06:50:16.117Z,11600
2017-08-26T06:51:18.575Z,11672
2017-08-26T06:52:21.045Z,11784
2017-08-26T06:53:23.510Z,11840
2017-08-26T06:54:25.981Z,11788
2017-08-26T06:55:28.791Z,11768
2017-08-26T06:56:31.259Z,11620
2017-08-26T06:57:33.732Z,11508
2017-08-26T06:58:36.201Z,11424
2017-08-26T06:59:39.184Z,11352
2017-08-26T07:00:41.652Z,11352
2017-08-26T07:01:44.114Z,11452
2017-08-26T07:02:46.589Z,11356
2017-08-26T07:03:49.054Z,11404
2017-08-26T07:04:51.525Z,11620
2017-08-26T07:05:53.986Z,12148
2017-08-26T07:06:56.455Z,12472
2017-08-26T07:07:58.929Z,12884
2017-08-26T07:09:01.401Z,13192
2017-08-26T07:10:03.861Z,13528
2017-08-26T07:11:06.429Z,13808
2017-08-26T07:12:08.965Z,14136
2017-08-26T07:14:52.560Z,14948
2017-08-26T07:15:54.971Z,14632
2017-08-26T07:16:57.379Z,14224
2017-08-26T07:17:59.883Z,13884
2017-08-26T07:19:02.293Z,13452
2017-08-26T07:20:04.712Z,13048
2017-08-26T07:21:07.118Z,12788
2017-08-26T07:22:09.523Z,12780
2017-08-26T07:23:11.933Z,12864
2017-08-26T07:24:14.345Z,12944
2017-08-26T07:25:16.763Z,13188
2017-08-26T07:26:19.172Z,13616
2017-08-26T07:27:21.579Z,14060
2017-08-26T07:28:24.338Z,14336
2017-08-26T07:29:26.744Z,14632
2017-08-26T07:30:29.491Z,14852
2017-08-26T07:31:31.895Z,15248
2017-08-26T07:32:34.302Z,15500
2017-08-26T07:33:36.708Z,15616
2017-08-26T07:34:39.129Z,15764
2017-08-26T07:35:41.533Z,15836
2017-08-26T07:36:43.946Z,15820
2017-08-26T07:37:46.357Z,15796
2017-08-26T07:38:48.767Z,16048
2017-08-26T07:39:51.181Z,16320
2017-08-26T07:40:53.592Z,16404
2017-08-26T07:41:56.343Z,16908
2017-08-26T07:42:58.761Z,17236
2017-08-26T07:44:01.536Z,17564
2017-08-26T07:45:04.291Z,17796
2017-08-26T07:46:07.039Z,17996
2017-08-26T07:47:09.453Z,17972
2017-08-26T07:48:11.862Z,18328
2017-08-26T07:49:14.270Z,18444
2017-08-26T07:50:17.023Z,18508
2017-08-26T07:51:19.432Z,18528
2017-08-26T07:52:21.836Z,18832
2017-08-26T07:54:58.807Z,19356
2017-08-26T07:56:01.249Z,19476
2017-08-26T07:57:03.684Z,19508
2017-08-26T07:58:06.115Z,19812
2017-08-26T07:59:08.559Z,20384
2017-08-26T08:00:10.991Z,27008
2017-08-26T08:01:13.420Z,45536
2017-08-26T08:02:15.854Z,61504
2017-08-26T08:03:18.286Z,71200
2017-08-26T08:04:20.721Z,61728
2017-08-26T08:05:23.151Z,54272
2017-08-26T08:06:25.586Z,52064
2017-08-26T08:07:28.023Z,45984
2017-08-26T08:08:30.449Z,43424
2017-08-26T08:09:32.878Z,45408
2017-08-26T08:10:35.323Z,50656
2017-08-26T08:11:38.105Z,52608
2017-08-26T08:12:40.534Z,59488
2017-08-26T08:13:42.976Z,85632
2017-08-26T08:14:45.760Z,71040
2017-08-26T08:15:48.196Z,110432
2017-08-26T08:16:50.634Z,92992
2017-08-26T08:17:53.063Z,114784
2017-08-26T08:18:55.495Z,80288
2017-08-26T08:19:57.942Z,49440
2017-08-26T08:21:00.375Z,55168
2017-08-26T08:22:02.807Z,65024
2017-08-26T08:23:05.240Z,61984
2017-08-26T08:24:07.670Z,82848
2017-08-26T08:25:10.117Z,68128
2017-08-26T08:26:12.554Z,61216
2017-08-26T08:27:14.987Z,60960
2017-08-26T08:28:17.423Z,60768
2017-08-26T08:29:19.862Z,64320
2017-08-26T08:30:22.302Z,66048
2017-08-26T08:31:24.736Z,60320
2017-08-26T08:32:27.166Z,59008
2017-08-26T08:33:29.602Z,60064
2017-08-26T08:34:32.044Z,60960
2017-08-26T08:35:34.480Z,61856
2017-08-26T08:36:36.917Z,62688
2017-08-26T08:37:39.352Z,65248
2017-08-26T08:38:42.125Z,66016
2017-08-26T08:39:44.559Z,52096
2017-08-26T08:40:46.990Z,71424
2017-08-26T08:41:49.427Z,75968
2017-08-26T08:42:51.854Z,72224
2017-08-26T08:43:54.298Z,69664
2017-08-26T08:44:56.731Z,78464
2017-08-26T08:45:59.167Z,79744
2017-08-26T08:47:01.606Z,77472
2017-08-26T08:48:04.387Z,77632
2017-08-26T08:49:06.832Z,79712
2017-08-26T08:50:09.276Z,80704
2017-08-26T08:51:11.704Z,75840
2017-08-26T08:52:14.147Z,67744
2017-08-26T08:53:16.578Z,64320
2017-08-26T08:54:19.009Z,50432
2017-08-26T08:55:21.450Z,55872
2017-08-26T08:56:23.890Z,59168
2017-08-26T08:57:26.321Z,48480
2017-08-26T08:58:28.778Z,57408
2017-08-26T08:59:31.212Z,72896
2017-08-26T09:00:33.649Z,48512
2017-08-26T09:01:36.093Z,63104
2017-08-26T09:02:38.530Z,67584
2017-08-26T09:03:40.970Z,68320
2017-08-26T09:04:43.412Z,70208
2017-08-26T09:05:46.208Z,65312
2017-08-26T09:06:48.649Z,67872
2017-08-26T09:07:51.083Z,68224
2017-08-26T09:08:53.521Z,72320
2017-08-26T09:09:55.964Z,71872
2017-08-26T09:10:58.405Z,77504
2017-08-26T09:12:00.840Z,80576
2017-08-26T09:13:03.625Z,79776
2017-08-26T09:14:06.068Z,83744
2017-08-26T09:15:08.507Z,84736
2017-08-26T09:16:10.948Z,85344
2017-08-26T09:17:13.390Z,84224
2017-08-26T09:18:15.830Z,80192
2017-08-26T09:19:18.614Z,87392
2017-08-26T09:20:21.050Z,86592
2017-08-26T09:21:23.491Z,87392
2017-08-26T09:22:26.263Z,85312
2017-08-26T09:23:28.709Z,83872
2017-08-26T09:24:31.146Z,85856
2017-08-26T09:25:33.593Z,82784
2017-08-26T09:26:36.039Z,78080
2017-08-26T09:27:38.480Z,80928
2017-08-26T09:28:40.924Z,75328
2017-08-26T09:29:43.367Z,76512
2017-08-26T09:30:45.809Z,73344
2017-08-26T09:31:48.250Z,72704
2017-08-26T09:32:50.685Z,72160
2017-08-26T09:33:53.126Z,69248
2017-08-26T09:34:55.570Z,64512
2017-08-26T09:35:58.009Z,61568
2017-08-26T09:37:00.797Z,64320
2017-08-26T09:38:03.237Z,80416
2017-08-26T09:39:05.683Z,83552
2017-08-26T09:40:08.122Z,84672
2017-08-26T09:41:10.562Z,83520
2017-08-26T09:42:13.000Z,85472
2017-08-26T09:43:15.458Z,64864
2017-08-26T09:44:17.892Z,57408
2017-08-26T09:45:20.673Z,59680
2017-08-26T09:46:23.459Z,56608
2017-08-26T09:47:25.903Z,47136
2017-08-26T09:48:28.346Z,46272
2017-08-26T09:49:30.791Z,45888
2017-08-26T09:50:33.226Z,45472
2017-08-26T09:51:35.669Z,45728
2017-08-26T09:52:38.118Z,43808
2017-08-26T09:53:40.563Z,44320
2017-08-26T09:54:43.011Z,47072
2017-08-26T09:55:45.449Z,53504
2017-08-26T09:56:47.880Z,80576
2017-08-26T09:57:50.362Z,84192
2017-08-26T09:58:52.775Z,92000
2017-08-26T09:59:55.219Z,106080
2017-08-26T10:00:57.662Z,102624
2017-08-26T10:02:00.105Z,107072
2017-08-26T10:03:02.550Z,62656
2017-08-26T10:04:05.000Z,106880
2017-08-26T10:05:07.444Z,101184
2017-08-26T10:06:10.251Z,86112
2017-08-26T10:07:12.681Z,101664
2017-08-26T10:08:15.124Z,104960
2017-08-26T10:09:17.573Z,102304
2017-08-26T10:10:20.012Z,110912
2017-08-26T10:11:22.462Z,104992
2017-08-26T10:12:24.902Z,94592
2017-08-26T10:13:27.348Z,100416
2017-08-26T10:14:30.142Z,102368
2017-08-26T10:15:32.930Z,97376
2017-08-26T10:16:35.717Z,98528
2017-08-26T10:17:38.164Z,94048
2017-08-26T10:18:40.604Z,95968
2017-08-26T10:19:43.393Z,98272
2017-08-26T10:20:45.847Z,97088
2017-08-26T10:21:48.651Z,96480
2017-08-26T10:22:51.103Z,92064
2017-08-26T10:23:53.897Z,98208
2017-08-26T10:24:56.337Z,98880
2017-08-26T10:25:58.788Z,100192
2017-08-26T10:27:01.233Z,98624
2017-08-26T10:28:03.678Z,102816
2017-08-26T10:29:06.474Z,105120
2017-08-26T10:30:08.922Z,101696
2017-08-26T10:31:11.357Z,102208
2017-08-26T10:32:13.808Z,110592
2017-08-26T10:33:16.257Z,125888
2017-08-26T10:34:18.697Z,134688
2017-08-26T10:35:21.143Z,131872
2017-08-26T10:36:23.594Z,128416
2017-08-26T10:37:26.039Z,129792
2017-08-26T10:38:28.477Z,127392
2017-08-26T10:39:30.918Z,117088
2017-08-26T10:40:33.717Z,126720
2017-08-26T10:41:36.158Z,131936
2017-08-26T10:42:38.613Z,132960
2017-08-26T10:43:41.055Z,124480
2017-08-26T10:44:43.838Z,125504
2017-08-26T10:45:46.287Z,132128
2017-08-26T10:46:48.731Z,125824
2017-08-26T10:47:51.168Z,118176
2017-08-26T10:48:53.623Z,118656
2017-08-26T10:49:56.067Z,117440
2017-08-26T10:50:58.514Z,115232
2017-08-26T10:52:01.329Z,114976
2017-08-26T10:53:03.771Z,113408
2017-08-26T10:54:06.570Z,110752
2017-08-26T10:55:09.027Z,116960
2017-08-26T10:56:11.469Z,125696
2017-08-26T10:57:13.920Z,124768
2017-08-26T10:58:16.703Z,122240
2017-08-26T10:59:19.148Z,118496
2017-08-26T11:00:21.940Z,113696
2017-08-26T11:01:24.393Z,110752
2017-08-26T11:02:27.172Z,111808
2017-08-26T11:03:29.624Z,104320
2017-08-26T11:04:32.061Z,100192
2017-08-26T11:05:34.506Z,107392
2017-08-26T11:06:36.955Z,114176
2017-08-26T11:07:39.753Z,119520
2017-08-26T11:08:42.201Z,115744
2017-08-26T11:09:44.650Z,108448
2017-08-26T11:10:47.439Z,112608
2017-08-26T11:11:49.892Z,116704
2017-08-26T11:12:52.344Z,124032
2017-08-26T11:13:54.784Z,121184
2017-08-26T11:14:57.230Z,118752
2017-08-26T11:15:59.681Z,115712
2017-08-26T11:17:02.135Z,108928
2017-08-26T11:18:04.687Z,107520
2017-08-26T11:19:07.126Z,102848
2017-08-26T11:20:09.571Z,90688
2017-08-26T11:21:12.030Z,85280
2017-08-26T11:22:14.467Z,105920
2017-08-26T11:23:16.917Z,112768
2017-08-26T11:24:19.367Z,115712
2017-08-26T11:25:21.814Z,114048
2017-08-26T11:26:24.269Z,111968
2017-08-26T11:27:26.724Z,113344
2017-08-26T11:28:29.165Z,109664
2017-08-26T11:29:31.961Z,114720
2017-08-26T11:30:35.122Z,115712
2017-08-26T11:31:37.570Z,114400
2017-08-26T11:32:40.019Z,110368
2017-08-26T11:33:42.471Z,106784
2017-08-26T11:34:44.917Z,108960
2017-08-26T11:35:47.365Z,106848
2017-08-26T11:36:49.816Z,99584
2017-08-26T11:37:52.614Z,100128
2017-08-26T11:38:55.066Z,97856
2017-08-26T11:39:57.518Z,101216
2017-08-26T11:40:59.969Z,106592
2017-08-26T11:42:02.421Z,106560
2017-08-26T11:43:05.213Z,100672
2017-08-26T11:44:07.661Z,96288
2017-08-26T11:45:10.112Z,98112
2017-08-26T11:46:12.552Z,101312
2017-08-26T11:47:15.350Z,93600
2017-08-26T11:48:17.794Z,98752
2017-08-26T11:49:20.239Z,97408
2017-08-26T11:50:22.692Z,94784
2017-08-26T11:51:25.133Z,98240
2017-08-26T11:52:27.587Z,101728
2017-08-26T11:53:30.044Z,98112
2017-08-26T11:54:32.482Z,92992
2017-08-26T11:55:34.940Z,86816
2017-08-26T11:56:37.388Z,77984
2017-08-26T11:57:40.181Z,61792
2017-08-26T11:58:42.637Z,59104
2017-08-26T11:59:45.085Z,56352
2017-08-26T12:00:47.531Z,56000
2017-08-26T12:01:49.985Z,55616
2017-08-26T12:02:52.440Z,55072
2017-08-26T12:03:54.878Z,53984
2017-08-26T12:04:57.331Z,54176
2017-08-26T12:05:59.780Z,60064
2017-08-26T12:07:02.227Z,79488
2017-08-26T12:08:05.015Z,78656
2017-08-26T12:09:07.467Z,85536
2017-08-26T12:10:09.923Z,80608
2017-08-26T12:11:12.382Z,59264
2017-08-26T12:12:14.838Z,55840
2017-08-26T12:13:17.636Z,50240
2017-08-26T12:14:20.096Z,45088
2017-08-26T12:15:22.548Z,46080
2017-08-26T12:16:25.004Z,42784
2017-08-26T12:17:27.458Z,42368
2017-08-26T12:18:30.196Z,43136
2017-08-26T12:19:32.650Z,43296
2017-08-26T12:20:35.095Z,50016
2017-08-26T12:21:37.898Z,51040
2017-08-26T12:22:40.358Z,50784
2017-08-26T12:23:43.154Z,50336
2017-08-26T12:24:45.601Z,48864
2017-08-26T12:25:48.056Z,48160
2017-08-26T12:26:50.507Z,51360
2017-08-26T12:27:53.310Z,56000
2017-08-26T12:28:55.755Z,79584
2017-08-26T12:29:58.221Z,57312
2017-08-26T12:31:00.658Z,67904
2017-08-26T12:32:03.101Z,63584
2017-08-26T12:33:05.920Z,89760
2017-08-26T12:34:08.368Z,89792
2017-08-26T12:35:10.819Z,93696
2017-08-26T12:36:13.418Z,94656
2017-08-26T12:37:15.873Z,73472
2017-08-26T12:38:18.684Z,72224
2017-08-26T12:39:21.128Z,54144
2017-08-26T12:40:23.581Z,53568
2017-08-26T12:41:26.033Z,74464
2017-08-26T12:42:28.478Z,71552
2017-08-26T12:43:30.926Z,54784
2017-08-26T12:44:33.368Z,47840
2017-08-26T12:45:35.809Z,50560
2017-08-26T12:46:38.268Z,74848
2017-08-26T12:47:40.712Z,77312
2017-08-26T12:48:43.157Z,77280
2017-08-26T12:49:45.609Z,89280
2017-08-26T12:50:48.054Z,83904
2017-08-26T12:51:50.516Z,52896
2017-08-26T12:52:52.965Z,54560
2017-08-26T12:53:55.411Z,76192
2017-08-26T12:54:57.866Z,72832
2017-08-26T12:56:00.650Z,96480
2017-08-26T12:57:03.099Z,91872
2017-08-26T12:58:05.545Z,96160
2017-08-26T12:59:07.983Z,90880
2017-08-26T13:00:10.430Z,97824
2017-08-26T13:01:12.884Z,103712
2017-08-26T13:02:15.331Z,98048
2017-08-26T13:03:17.781Z,88000
2017-08-26T13:04:20.231Z,86432
2017-08-26T13:05:23.046Z,65472
2017-08-26T13:06:25.493Z,80992
2017-08-26T13:07:27.936Z,96032
2017-08-26T13:08:30.734Z,93856
2017-08-26T13:09:33.177Z,95040
2017-08-26T13:10:35.628Z,86048
2017-08-26T13:11:38.077Z,96320
2017-08-26T13:12:40.521Z,91840
2017-08-26T13:13:42.989Z,91840
2017-08-26T13:14:45.419Z,65408
2017-08-26T13:15:47.861Z,55776
2017-08-26T13:16:50.320Z,48352
2017-08-26T13:17:52.771Z,57280
2017-08-26T13:18:55.223Z,49024
2017-08-26T13:19:57.672Z,62592
2017-08-26T13:21:00.120Z,84992
2017-08-26T13:22:02.569Z,83040
2017-08-26T13:23:05.019Z,79072
2017-08-26T13:24:07.466Z,77600
2017-08-26T13:25:09.916Z,79744
2017-08-26T13:26:12.363Z,72864
2017-08-26T13:27:15.154Z,63744
2017-08-26T13:28:17.602Z,82368
2017-08-26T13:29:20.062Z,66880
2017-08-26T13:30:22.509Z,67168
2017-08-26T13:31:24.961Z,78528
2017-08-26T13:32:27.406Z,85120
2017-08-26T13:33:29.859Z,84160
2017-08-26T13:34:32.308Z,86304
2017-08-26T13:35:34.771Z,69248
2017-08-26T13:36:37.221Z,77792
2017-08-26T13:37:39.673Z,74528
2017-08-26T13:38:42.115Z,72128
2017-08-26T13:39:44.568Z,63328
2017-08-26T13:40:47.015Z,48160
2017-08-26T13:41:49.478Z,60128
2017-08-26T13:42:51.935Z,44576
2017-08-26T13:43:54.382Z,48992
2017-08-26T13:44:56.839Z,52576
2017-08-26T13:45:59.623Z,49728
2017-08-26T13:47:02.430Z,46176
2017-08-26T13:48:04.877Z,34880
2017-08-26T13:49:07.333Z,34912
2017-08-26T13:50:09.781Z,35136
2017-08-26T13:51:12.241Z,33056
2017-08-26T13:52:14.693Z,31904
2017-08-26T13:53:17.819Z,34048
2017-08-26T13:54:20.272Z,43264
2017-08-26T13:55:22.733Z,44384
2017-08-26T13:56:25.529Z,42624
2017-08-26T13:57:27.986Z,45728
2017-08-26T13:58:30.440Z,39520
2017-08-26T13:59:32.888Z,44672
2017-08-26T14:00:35.349Z,39840
2017-08-26T14:01:37.796Z,34048
2017-08-26T14:02:40.249Z,37376